Atalandi — SVBA — position and weather

sailwx.info

Track history (hours):
 
Tides and Currents Weather Stations Pressure Air Temp Water Temp Dewpoint Dewpoint Depression Visibility Wind Speed Wind Dir Waves Ship Positions

Atalandi

Last reported at 2015-Feb-01 05:03 UTC. Time now 2015-Feb-01 14:52 UTC.
Position N 29°23' W 094°53'.

Length 248 m; draft 8.5 m.

Type: Tanker. MMSI: 240269000.

Date/timePositionNaut miles runAvg speedWind from/ knotsBaromVisibWave heightAir tempDewpointWater temp
2015-Feb-01 05:03N 29°23' W 094°53'1 0.0
2015-Jan-30 12:04N 29°23' W 094°54'0 0.0
2015-Jan-30 11:33N 29°23' W 094°54'4 3.2
2015-Jan-30 10:26N 29°22' W 094°49'12 0.5
2015-Jan-29 10:13N 29°15' W 094°39'0 0.0
2015-Jan-29 09:13N 29°15' W 094°39'0 0.0
2015-Jan-29 08:31N 29°15' W 094°39'0 0.0
2015-Jan-29 03:28N 29°15' W 094°39'0 0.0
2015-Jan-28 10:25N 29°15' W 094°39'0 0.0
2015-Jan-27 14:16N 29°15' W 094°39'0 0.1
2015-Jan-27 08:14N 29°16' W 094°39'6 8.1
2015-Jan-27 07:31N 29°21' W 094°42'2 1.7
2015-Jan-27 06:08N 29°21' W 094°44'0 0.2
2015-Jan-27 05:32N 29°21' W 094°44'0 0.0
2015-Jan-27 01:26N 29°21' W 094°45'0 0.2
2015-Jan-27 00:20N 29°21' W 094°44'0 0.1
2015-Jan-26 23:20N 29°21' W 094°44'0 0.1
2015-Jan-26 21:32N 29°21' W 094°45'0 0.0
2015-Jan-26 20:32N 29°21' W 094°45'0 0.0
2015-Jan-26 19:08N 29°21' W 094°45'1 0.5
2015-Jan-26 17:32N 29°21' W 094°46'9 9.1
2015-Jan-26 16:34N 29°28' W 094°51'1110.7
2015-Jan-26 15:34N 29°37' W 094°57'8 8.4
2015-Jan-26 14:34N 29°44' W 095°03'4 0.1
2015-Jan-24 17:24N 29°44' W 095°08'3 3.5
2015-Jan-24 16:33N 29°46' W 095°05'7 6.9
2015-Jan-24 15:34N 29°41' W 094°59'10 9.6
2015-Jan-24 14:33N 29°33' W 094°54'1111.0
2015-Jan-24 13:33N 29°23' W 094°48'  
Track history (hours):
 
Tides and Currents Weather Stations Pressure Air Temp Water Temp Dewpoint Dewpoint Depression Visibility Wind Speed Wind Dir Waves Ship Positions

Atalandi

Last reported at 2015-Feb-01 05:03 UTC. Time now 2015-Feb-01 14:52 UTC.
Position N 29°23' W 094°53'.

Length 248 m; draft 8.5 m.

Type: Tanker. MMSI: 240269000.

Date/timePositionNaut miles runAvg speedWind from/ knotsBaromVisibWave heightAir tempDewpointWater temp
2015-Feb-01 05:03N 29°23' W 094°53'1 0.0
2015-Jan-30 12:04N 29°23' W 094°54'0 0.0
2015-Jan-30 11:33N 29°23' W 094°54'4 3.2
2015-Jan-30 10:26N 29°22' W 094°49'12 0.5
2015-Jan-29 10:13N 29°15' W 094°39'0 0.0
2015-Jan-29 09:13N 29°15' W 094°39'0 0.0
2015-Jan-29 08:31N 29°15' W 094°39'0 0.0
2015-Jan-29 03:28N 29°15' W 094°39'0 0.0
2015-Jan-28 10:25N 29°15' W 094°39'0 0.0
2015-Jan-27 14:16N 29°15' W 094°39'0 0.1
2015-Jan-27 08:14N 29°16' W 094°39'6 8.1
2015-Jan-27 07:31N 29°21' W 094°42'2 1.7
2015-Jan-27 06:08N 29°21' W 094°44'0 0.2
2015-Jan-27 05:32N 29°21' W 094°44'0 0.0
2015-Jan-27 01:26N 29°21' W 094°45'0 0.2
2015-Jan-27 00:20N 29°21' W 094°44'0 0.1
2015-Jan-26 23:20N 29°21' W 094°44'0 0.1
2015-Jan-26 21:32N 29°21' W 094°45'0 0.0
2015-Jan-26 20:32N 29°21' W 094°45'0 0.0
2015-Jan-26 19:08N 29°21' W 094°45'1 0.5
2015-Jan-26 17:32N 29°21' W 094°46'9 9.1
2015-Jan-26 16:34N 29°28' W 094°51'1110.7
2015-Jan-26 15:34N 29°37' W 094°57'8 8.4
2015-Jan-26 14:34N 29°44' W 095°03'4 0.1
2015-Jan-24 17:24N 29°44' W 095°08'3 3.5
2015-Jan-24 16:33N 29°46' W 095°05'7 6.9
2015-Jan-24 15:34N 29°41' W 094°59'10 9.6
2015-Jan-24 14:33N 29°33' W 094°54'1111.0
2015-Jan-24 13:33N 29°23' W 094°48'  

Dump ship's entire track history